createdAt,value
2019-03-06T00:02:15.619Z,6.70
2019-03-06T00:04:44.784Z,5.65
2019-03-06T00:07:13.943Z,6.10
2019-03-06T00:09:43.061Z,6.70
2019-03-06T00:12:12.363Z,6.62
2019-03-06T00:14:41.847Z,6.40
2019-03-06T00:17:10.944Z,5.47
2019-03-06T00:19:40.015Z,7.50
2019-03-06T00:22:09.253Z,6.55
2019-03-06T00:24:38.322Z,6.53
2019-03-06T00:27:07.448Z,7.45
2019-03-06T00:29:36.765Z,6.17
2019-03-06T00:32:06.006Z,6.67
2019-03-06T00:34:35.471Z,6.03
2019-03-06T00:37:04.676Z,7.58
2019-03-06T00:39:41.640Z,7.42
2019-03-06T00:42:10.732Z,7.97
2019-03-06T00:44:39.762Z,7.62
2019-03-06T00:47:08.960Z,6.05
2019-03-06T00:49:38.130Z,6.40
2019-03-06T00:52:07.224Z,8.20
2019-03-06T00:54:36.414Z,7.40
2019-03-06T00:57:05.546Z,7.70
2019-03-06T00:59:34.711Z,7.92
2019-03-06T01:02:04.286Z,8.15
2019-03-06T01:04:33.451Z,8.38
2019-03-06T01:07:02.550Z,7.50
2019-03-06T01:09:31.644Z,8.93
2019-03-06T01:12:00.719Z,9.35
2019-03-06T01:14:29.902Z,8.80
2019-03-06T01:16:58.935Z,9.13
2019-03-06T01:19:28.217Z,12.13
2019-03-06T01:21:57.343Z,11.95
2019-03-06T01:24:26.413Z,9.68
2019-03-06T01:26:55.500Z,10.40
2019-03-06T01:29:24.787Z,10.78
2019-03-06T01:31:54.141Z,11.20
2019-03-06T01:34:40.696Z,11.85
2019-03-06T01:37:21.861Z,10.05
2019-03-06T01:40:09.289Z,11.60
2019-03-06T01:42:49.401Z,11.18
2019-03-06T01:45:18.662Z,11.50
2019-03-06T01:47:47.815Z,12.18
2019-03-06T01:50:17.061Z,11.25
2019-03-06T01:52:46.322Z,11.75
2019-03-06T01:55:16.070Z,9.50
2019-03-06T01:57:45.202Z,11.40
2019-03-06T02:00:19.063Z,12.93
2019-03-06T02:02:48.269Z,12.18
2019-03-06T02:05:17.756Z,11.53
2019-03-06T02:07:47.002Z,11.08
2019-03-06T02:10:16.886Z,10.58
2019-03-06T02:12:45.976Z,12.20
2019-03-06T02:15:15.990Z,12.33
2019-03-06T02:17:45.261Z,12.98
2019-03-06T02:20:16.081Z,12.15
2019-03-06T02:22:45.219Z,12.90
2019-03-06T02:25:15.102Z,12.07
2019-03-06T02:27:44.666Z,11.90
2019-03-06T02:30:16.466Z,13.22
2019-03-06T02:32:45.702Z,12.80
2019-03-06T02:35:14.919Z,14.60
2019-03-06T02:37:44.097Z,13.85
2019-03-06T02:40:13.466Z,13.20
2019-03-06T02:42:42.654Z,14.03
2019-03-06T02:45:13.037Z,13.90
2019-03-06T02:47:42.325Z,13.93
2019-03-06T02:50:12.234Z,13.40
2019-03-06T02:52:41.654Z,14.30
2019-03-06T02:55:11.048Z,14.68
2019-03-06T02:57:43.689Z,14.23
2019-03-06T03:00:39.883Z,15.45
2019-03-06T03:03:22.647Z,17.42
2019-03-06T03:06:04.268Z,15.03
2019-03-06T03:08:33.540Z,15.83
2019-03-06T03:11:02.737Z,15.80
2019-03-06T03:13:31.917Z,15.65
2019-03-06T03:16:00.931Z,17.37
2019-03-06T03:18:30.117Z,16.65
2019-03-06T03:20:59.321Z,17.85
2019-03-06T03:23:28.415Z,17.73
2019-03-06T03:25:57.533Z,18.37
2019-03-06T03:28:26.703Z,18.67
2019-03-06T03:30:55.859Z,19.05
2019-03-06T03:33:25.114Z,17.17
2019-03-06T03:35:54.230Z,19.45
2019-03-06T03:38:23.327Z,18.65
2019-03-06T03:40:52.291Z,18.35
2019-03-06T03:43:21.401Z,19.15
2019-03-06T03:45:50.448Z,22.77
2019-03-06T03:48:19.622Z,19.98
2019-03-06T03:50:48.735Z,21.23
2019-03-06T03:53:17.958Z,19.62
2019-03-06T03:55:47.032Z,19.10
2019-03-06T03:58:16.278Z,21.12
2019-03-06T04:00:45.340Z,20.77
2019-03-06T04:03:14.394Z,21.30
2019-03-06T04:05:43.571Z,19.95
2019-03-06T04:08:31.874Z,19.82
2019-03-06T04:11:01.146Z,20.85
2019-03-06T04:13:30.364Z,20.72
2019-03-06T04:15:59.499Z,20.43
2019-03-06T04:18:28.769Z,18.35
2019-03-06T04:20:57.902Z,18.62
2019-03-06T04:23:26.955Z,20.97
2019-03-06T04:25:55.973Z,22.10
2019-03-06T04:28:27.853Z,19.45
2019-03-06T04:30:55.922Z,19.27
2019-03-06T04:33:24.970Z,20.30
2019-03-06T04:35:54.155Z,21.50
2019-03-06T04:38:23.167Z,22.32
2019-03-06T04:40:52.207Z,20.45
2019-03-06T04:43:21.465Z,20.92
2019-03-06T04:45:50.545Z,20.72
2019-03-06T04:48:19.694Z,18.82
2019-03-06T04:50:48.834Z,20.27
2019-03-06T04:53:17.943Z,21.80
2019-03-06T04:55:47.077Z,21.50
2019-03-06T04:58:16.114Z,20.95
2019-03-06T05:00:45.245Z,20.70
2019-03-06T05:03:14.328Z,21.23
2019-03-06T05:05:43.420Z,20.35
2019-03-06T05:08:12.460Z,22.77
2019-03-06T05:10:41.612Z,24.92
2019-03-06T05:13:10.655Z,22.93
2019-03-06T05:15:39.741Z,22.40
2019-03-06T05:18:27.951Z,24.23
2019-03-06T05:20:57.200Z,21.17
2019-03-06T05:23:26.353Z,22.60
2019-03-06T05:25:55.379Z,22.45
2019-03-06T05:28:24.363Z,21.12
2019-03-06T05:30:53.463Z,21.62
2019-03-06T05:33:22.738Z,23.15
2019-03-06T05:36:51.137Z,20.92
2019-03-06T05:39:20.142Z,20.55
2019-03-06T05:41:49.276Z,23.67
2019-03-06T05:44:18.303Z,22.27
2019-03-06T05:46:47.331Z,20.85
2019-03-06T05:49:16.469Z,21.52
2019-03-06T05:51:45.469Z,22.20
2019-03-06T05:54:14.547Z,20.75
2019-03-06T05:56:43.612Z,20.77
2019-03-06T05:59:12.571Z,20.72
2019-03-06T06:01:41.632Z,20.92
2019-03-06T06:04:10.645Z,20.02
2019-03-06T06:06:39.600Z,20.57
2019-03-06T06:09:08.980Z,20.40
2019-03-06T06:11:37.946Z,19.00
2019-03-06T06:14:07.045Z,18.48
2019-03-06T06:16:36.675Z,20.45
2019-03-06T06:19:06.101Z,18.30
2019-03-06T06:21:56.051Z,16.85
2019-03-06T06:24:28.001Z,18.12
2019-03-06T06:27:01.188Z,18.73
2019-03-06T06:30:08.876Z,15.83
2019-03-06T06:33:03.990Z,17.35
2019-03-06T06:35:33.271Z,18.67
2019-03-06T06:38:02.529Z,16.40
2019-03-06T06:40:31.909Z,15.15
2019-03-06T06:43:03.902Z,16.85
2019-03-06T06:45:34.687Z,17.27
2019-03-06T06:48:20.063Z,17.60
2019-03-06T06:51:12.217Z,16.93
2019-03-06T06:54:26.962Z,15.72
2019-03-06T06:57:35.485Z,16.30
2019-03-06T07:01:08.142Z,17.48
2019-03-06T07:04:34.802Z,15.75
2019-03-06T07:07:12.785Z,15.20
2019-03-06T07:10:05.565Z,17.37
2019-03-06T07:12:56.709Z,15.80
2019-03-06T07:15:47.928Z,16.32
2019-03-06T07:18:42.028Z,13.98
2019-03-06T07:21:22.681Z,14.68
2019-03-06T07:24:19.606Z,14.83
2019-03-06T07:26:58.201Z,13.32
2019-03-06T07:29:34.885Z,13.85
2019-03-06T07:32:21.609Z,16.15
2019-03-06T07:35:44.223Z,12.82
2019-03-06T07:38:14.653Z,12.45
2019-03-06T07:41:10.876Z,13.28
2019-03-06T07:44:14.001Z,12.30
2019-03-06T07:47:08.409Z,13.30
2019-03-06T07:49:56.660Z,12.60
2019-03-06T07:52:34.284Z,13.20
2019-03-06T07:55:21.123Z,12.88
2019-03-06T07:58:27.211Z,12.93
2019-03-06T08:00:56.299Z,13.25
2019-03-06T08:03:40.018Z,12.35
2019-03-06T08:06:09.192Z,11.38
2019-03-06T08:08:38.431Z,12.37
2019-03-06T08:11:12.131Z,13.13
2019-03-06T08:14:01.518Z,10.85
2019-03-06T08:16:55.639Z,11.08
2019-03-06T08:19:51.316Z,11.12
2019-03-06T08:22:27.413Z,11.25
2019-03-06T08:25:13.452Z,11.00
2019-03-06T08:27:42.570Z,9.80
2019-03-06T08:30:12.619Z,10.95
2019-03-06T08:32:41.875Z,11.10
2019-03-06T08:35:11.045Z,10.00
2019-03-06T08:37:40.924Z,11.25
2019-03-06T08:40:10.448Z,10.35
2019-03-06T08:42:39.743Z,11.50
2019-03-06T08:45:36.217Z,11.90
2019-03-06T08:48:16.212Z,11.30
2019-03-06T08:51:00.311Z,10.00
2019-03-06T08:53:48.486Z,10.30
2019-03-06T08:56:35.311Z,10.25
2019-03-06T08:59:23.458Z,10.48
2019-03-06T09:02:15.835Z,9.58
2019-03-06T09:04:58.789Z,9.55
2019-03-06T09:07:50.961Z,10.38
2019-03-06T09:10:51.204Z,10.78
2019-03-06T09:13:45.401Z,10.08
2019-03-06T09:16:45.754Z,11.45
2019-03-06T09:19:24.613Z,9.88
2019-03-06T09:22:12.831Z,10.48
2019-03-06T09:25:00.314Z,11.18
2019-03-06T09:27:34.709Z,10.68
2019-03-06T09:30:22.876Z,9.95
2019-03-06T09:33:20.221Z,12.00
2019-03-06T09:36:06.832Z,12.15
2019-03-06T09:39:06.869Z,9.50
2019-03-06T09:41:44.688Z,8.55
2019-03-06T09:44:22.541Z,9.43
2019-03-06T09:47:10.573Z,10.53
2019-03-06T09:49:49.146Z,9.45
2019-03-06T09:52:36.232Z,9.30
2019-03-06T09:55:43.774Z,9.95
2019-03-06T09:58:19.606Z,11.05
2019-03-06T10:01:06.533Z,9.98
2019-03-06T10:04:09.841Z,10.32
2019-03-06T10:06:56.509Z,11.48
2019-03-06T10:09:47.540Z,10.08
2019-03-06T10:12:27.054Z,10.68
2019-03-06T10:15:13.961Z,10.20
2019-03-06T10:17:53.936Z,10.38
2019-03-06T10:20:25.428Z,10.65
2019-03-06T10:22:54.900Z,11.53
2019-03-06T10:25:30.118Z,10.70
2019-03-06T10:28:05.713Z,10.40
2019-03-06T10:30:27.498Z,11.50
2019-03-06T10:32:56.764Z,10.85
2019-03-06T10:35:25.891Z,10.80
2019-03-06T10:37:55.452Z,10.55
2019-03-06T10:40:24.657Z,10.70
2019-03-06T10:42:54.239Z,11.70
2019-03-06T10:45:23.338Z,12.90
2019-03-06T10:47:52.745Z,11.83
2019-03-06T10:50:26.591Z,10.60
2019-03-06T10:52:53.443Z,10.68
2019-03-06T10:55:22.635Z,11.18
2019-03-06T10:57:53.607Z,11.88
2019-03-06T11:03:32.562Z,11.22
2019-03-06T11:06:05.786Z,11.55
2019-03-06T11:08:38.480Z,11.38
2019-03-06T11:11:09.884Z,11.63
2019-03-06T11:14:11.228Z,10.20
2019-03-06T11:16:40.764Z,10.05
2019-03-06T11:19:16.452Z,10.23
2019-03-06T11:21:46.297Z,9.80
2019-03-06T11:24:20.333Z,9.38
2019-03-06T11:26:50.623Z,9.30
2019-03-06T11:29:19.859Z,9.58
2019-03-06T11:31:48.986Z,9.98
2019-03-06T11:34:18.321Z,8.68
2019-03-06T11:36:47.535Z,9.15
2019-03-06T11:39:17.015Z,10.25
2019-03-06T11:41:46.258Z,9.20
2019-03-06T11:44:15.593Z,8.15
2019-03-06T11:46:47.797Z,8.48
2019-03-06T11:49:17.054Z,8.50
2019-03-06T11:51:46.583Z,8.15
2019-03-06T11:54:16.064Z,8.48
2019-03-06T11:56:45.540Z,7.35
2019-03-06T11:59:15.103Z,8.28
2019-03-06T12:01:48.263Z,7.42
2019-03-06T12:04:16.281Z,7.40
2019-03-06T12:06:45.807Z,7.22
2019-03-06T12:09:31.467Z,7.58
2019-03-06T12:12:01.534Z,6.40
2019-03-06T12:14:30.828Z,7.17
2019-03-06T12:17:00.724Z,7.90
2019-03-06T12:19:29.915Z,6.62
2019-03-06T12:21:59.114Z,7.55
2019-03-06T12:24:28.244Z,6.62
2019-03-06T12:26:57.473Z,6.60
2019-03-06T12:29:27.876Z,5.78
2019-03-06T12:31:56.858Z,6.03
2019-03-06T12:34:26.115Z,6.40
2019-03-06T12:36:55.670Z,6.08
2019-03-06T12:39:24.651Z,5.50
2019-03-06T12:41:54.676Z,6.75
2019-03-06T12:44:24.458Z,6.97
2019-03-06T12:46:56.311Z,6.10
2019-03-06T12:49:27.515Z,6.00
2019-03-06T12:51:57.058Z,5.50
2019-03-06T12:54:26.357Z,6.15
2019-03-06T12:56:55.759Z,5.92
2019-03-06T12:59:25.345Z,6.97
2019-03-06T13:01:54.568Z,6.25
2019-03-06T13:04:29.260Z,5.67
2019-03-06T13:06:58.291Z,7.22
2019-03-06T13:09:27.712Z,6.00
2019-03-06T13:11:57.262Z,5.45
2019-03-06T13:14:27.092Z,6.42
2019-03-06T13:16:57.309Z,5.62
2019-03-06T13:19:30.368Z,6.15
2019-03-06T13:21:59.379Z,5.83
2019-03-06T13:24:29.028Z,5.67
2019-03-06T13:26:58.751Z,5.80
2019-03-06T13:29:32.861Z,6.12
2019-03-06T13:32:11.462Z,5.80
2019-03-06T13:34:59.130Z,5.30
2019-03-06T13:37:29.213Z,5.55
2019-03-06T13:39:58.931Z,5.60
2019-03-06T13:43:02.991Z,5.78
2019-03-06T13:45:31.878Z,5.90
2019-03-06T13:48:06.179Z,5.42
2019-03-06T13:50:35.574Z,5.03
2019-03-06T13:53:35.541Z,4.85
2019-03-06T13:57:25.725Z,3.85
2019-03-06T14:33:14.383Z,6.37
2019-03-06T14:36:27.419Z,6.90
2019-03-06T14:46:47.670Z,6.40
2019-03-06T14:51:47.322Z,6.35
2019-03-06T14:52:26.384Z,5.53
2019-03-06T14:56:12.024Z,5.12
2019-03-06T14:58:46.234Z,6.08
2019-03-06T15:13:07.630Z,5.30
2019-03-06T15:16:15.873Z,4.65
2019-03-06T15:18:56.697Z,4.70
2019-03-06T15:21:30.333Z,5.25
2019-03-06T15:24:00.402Z,4.85
2019-03-06T15:26:31.496Z,4.33
2019-03-06T15:29:07.398Z,4.30
2019-03-06T15:35:22.400Z,4.67
2019-03-06T15:37:52.028Z,4.58
2019-03-06T15:40:23.860Z,3.87
2019-03-06T15:42:53.409Z,4.50
2019-03-06T15:45:27.927Z,3.40
2019-03-06T15:47:59.459Z,4.35
2019-03-06T15:50:29.067Z,4.22
2019-03-06T15:53:00.302Z,4.60
2019-03-06T15:55:30.038Z,3.80
2019-03-06T15:57:59.620Z,4.10
2019-03-06T16:00:45.386Z,4.58
2019-03-06T16:03:07.880Z,3.80
2019-03-06T16:05:37.756Z,4.75
2019-03-06T16:08:08.002Z,4.17
2019-03-06T16:10:42.658Z,3.72
2019-03-06T16:13:16.554Z,3.70
2019-03-06T16:15:46.450Z,3.70
2019-03-06T16:18:17.287Z,3.47
2019-03-06T16:20:47.218Z,3.70
2019-03-06T16:23:40.487Z,3.35
2019-03-06T16:26:10.394Z,3.27
2019-03-06T16:28:43.379Z,3.00
2019-03-06T16:31:21.747Z,4.45
2019-03-06T16:33:58.701Z,3.60
2019-03-06T16:36:28.588Z,4.35
2019-03-06T16:38:58.382Z,4.67
2019-03-06T16:41:30.753Z,4.25
2019-03-06T16:44:01.184Z,3.87
2019-03-06T16:46:36.295Z,4.67
2019-03-06T16:49:05.663Z,5.10
2019-03-06T16:51:35.043Z,4.70
2019-03-06T16:54:04.643Z,3.85
2019-03-06T16:56:33.959Z,3.90
2019-03-06T16:59:03.340Z,4.20
2019-03-06T17:01:32.567Z,4.12
2019-03-06T17:04:01.884Z,4.40
2019-03-06T17:06:31.063Z,3.92
2019-03-06T17:09:01.318Z,3.45
2019-03-06T17:11:30.614Z,4.53
2019-03-06T17:13:59.969Z,5.22
2019-03-06T17:16:29.375Z,3.67
2019-03-06T17:18:58.778Z,4.75
2019-03-06T17:21:28.088Z,4.45
2019-03-06T17:23:57.847Z,5.70
2019-03-06T17:26:27.261Z,4.40
2019-03-06T17:28:56.461Z,4.65
2019-03-06T17:31:26.008Z,5.17
2019-03-06T17:33:57.537Z,4.55
2019-03-06T17:36:29.578Z,4.05
2019-03-06T17:38:58.767Z,4.70
2019-03-06T17:41:28.053Z,5.58
2019-03-06T17:43:57.503Z,5.15
2019-03-06T17:46:26.800Z,4.80
2019-03-06T17:48:56.265Z,4.58
2019-03-06T17:51:25.729Z,3.90
2019-03-06T17:54:02.954Z,5.00
2019-03-06T17:56:32.258Z,4.75
2019-03-06T17:59:03.261Z,4.60
2019-03-06T18:01:32.243Z,6.03
2019-03-06T18:04:20.716Z,5.25
2019-03-06T18:06:50.038Z,5.20
2019-03-06T18:09:19.683Z,5.75
2019-03-06T18:11:49.185Z,4.50
2019-03-06T18:14:20.328Z,5.55
2019-03-06T18:16:50.064Z,5.15
2019-03-06T18:19:20.182Z,4.65
2019-03-06T18:21:52.739Z,4.95
2019-03-06T18:24:21.972Z,5.15
2019-03-06T18:26:51.559Z,4.78
2019-03-06T18:29:21.342Z,4.75
2019-03-06T18:31:50.755Z,5.22
2019-03-06T18:34:20.552Z,4.60
2019-03-06T18:36:50.033Z,5.83
2019-03-06T18:39:22.834Z,6.10
2019-03-06T18:41:52.284Z,4.37
2019-03-06T18:44:24.518Z,4.83
2019-03-06T18:46:57.198Z,4.80
2019-03-06T18:49:28.825Z,5.50
2019-03-06T18:51:58.029Z,4.78
2019-03-06T18:54:27.646Z,5.80
2019-03-06T18:56:58.856Z,5.17
2019-03-06T18:59:28.651Z,5.17
2019-03-06T19:01:59.860Z,5.53
2019-03-06T19:04:29.286Z,5.15
2019-03-06T19:06:58.734Z,5.03
2019-03-06T19:09:30.694Z,5.70
2019-03-06T19:12:00.591Z,5.67
2019-03-06T19:14:35.438Z,6.12
2019-03-06T19:17:06.041Z,4.72
2019-03-06T19:19:35.763Z,5.53
2019-03-06T19:22:05.416Z,5.75
2019-03-06T19:24:34.889Z,6.08
2019-03-06T19:27:04.247Z,5.80
2019-03-06T19:29:36.599Z,5.85
2019-03-06T19:32:06.093Z,5.45
2019-03-06T19:34:35.461Z,5.22
2019-03-06T19:37:04.849Z,5.65
2019-03-06T19:39:34.123Z,6.10
2019-03-06T19:42:22.907Z,5.55
2019-03-06T19:44:52.221Z,5.95
2019-03-06T19:47:21.759Z,6.30
2019-03-06T19:49:51.173Z,6.08
2019-03-06T19:52:20.313Z,5.55
2019-03-06T19:54:51.566Z,6.85
2019-03-06T19:57:21.133Z,7.78
2019-03-06T19:59:50.200Z,7.22
2019-03-06T20:02:19.891Z,6.72
2019-03-06T20:04:50.956Z,7.33
2019-03-06T20:07:20.351Z,6.45
2019-03-06T20:09:51.396Z,7.45
2019-03-06T20:12:20.582Z,7.17
2019-03-06T20:14:50.170Z,7.00
2019-03-06T20:17:20.331Z,6.85
2019-03-06T20:19:49.664Z,7.95
2019-03-06T20:22:19.867Z,6.85
2019-03-06T20:24:49.095Z,7.10
2019-03-06T20:27:18.396Z,7.35
2019-03-06T20:29:47.844Z,6.80
2019-03-06T20:32:17.013Z,6.65
2019-03-06T20:34:47.825Z,6.90
2019-03-06T20:37:17.190Z,7.00
2019-03-06T20:39:46.578Z,6.25
2019-03-06T20:42:15.630Z,6.40
2019-03-06T20:44:44.738Z,7.05
2019-03-06T20:47:14.261Z,5.80
2019-03-06T20:49:43.392Z,5.60
2019-03-06T20:52:12.692Z,6.75
2019-03-06T20:54:41.986Z,5.55
2019-03-06T20:57:11.311Z,6.50
2019-03-06T20:59:42.554Z,6.70
2019-03-06T21:02:11.715Z,6.10
2019-03-06T21:04:41.044Z,5.92
2019-03-06T21:07:14.035Z,5.28
2019-03-06T21:09:43.218Z,5.35
2019-03-06T21:12:12.350Z,5.30
2019-03-06T21:14:41.691Z,5.30
2019-03-06T21:17:11.020Z,6.45
2019-03-06T21:19:40.337Z,5.42
2019-03-06T21:22:09.760Z,6.37
2019-03-06T21:24:43.373Z,5.40
2019-03-06T21:27:12.906Z,5.90
2019-03-06T21:29:42.609Z,5.37
2019-03-06T21:32:29.014Z,5.65
2019-03-06T21:35:03.779Z,6.12
2019-03-06T21:40:25.638Z,5.10
2019-03-06T21:42:54.832Z,6.15
2019-03-06T21:45:24.193Z,6.03
2019-03-06T21:47:57.571Z,6.00
2019-03-06T21:50:27.050Z,5.00
2019-03-06T21:52:56.375Z,5.15
2019-03-06T21:55:25.616Z,5.12
2019-03-06T21:57:55.170Z,5.87
2019-03-06T22:00:24.761Z,6.53
2019-03-06T22:02:54.959Z,4.80
2019-03-06T22:05:24.365Z,5.55
2019-03-06T22:07:53.617Z,5.20
2019-03-06T22:10:22.883Z,5.70
2019-03-06T22:12:52.176Z,5.50
2019-03-06T22:15:21.427Z,5.70
2019-03-06T22:17:51.126Z,5.25
2019-03-06T22:20:20.403Z,5.50
2019-03-06T22:22:49.579Z,5.70
2019-03-06T22:25:19.180Z,5.37
2019-03-06T22:27:48.477Z,5.10
2019-03-06T22:30:18.517Z,5.15
2019-03-06T22:32:47.695Z,4.50
2019-03-06T22:35:17.069Z,4.80
2019-03-06T22:37:46.307Z,5.40
2019-03-06T22:40:16.116Z,4.85
2019-03-06T22:42:45.325Z,5.00
2019-03-06T22:45:16.057Z,4.60
2019-03-06T22:47:45.207Z,4.30
2019-03-06T22:50:14.560Z,4.47
2019-03-06T22:52:43.730Z,4.72
2019-03-06T22:55:14.553Z,4.03
2019-03-06T22:57:43.774Z,4.37
2019-03-06T23:00:29.202Z,4.40
2019-03-06T23:02:58.635Z,4.60
2019-03-06T23:05:28.285Z,4.60
2019-03-06T23:07:57.433Z,5.20
2019-03-06T23:10:26.654Z,4.95
2019-03-06T23:12:55.873Z,3.50
2019-03-06T23:15:25.022Z,3.70
2019-03-06T23:17:54.497Z,4.50
2019-03-06T23:20:23.657Z,4.12
2019-03-06T23:22:52.804Z,3.77
2019-03-06T23:25:22.085Z,4.12
2019-03-06T23:27:51.366Z,3.52
2019-03-06T23:30:20.513Z,3.50
2019-03-06T23:32:49.912Z,3.62
2019-03-06T23:35:19.161Z,3.90
2019-03-06T23:37:48.310Z,4.00
2019-03-06T23:40:17.513Z,3.85
2019-03-06T23:42:48.076Z,3.20
2019-03-06T23:45:17.478Z,3.40
2019-03-06T23:47:46.654Z,3.83
2019-03-06T23:50:15.709Z,3.83
2019-03-06T23:53:05.414Z,3.52
2019-03-06T23:55:34.491Z,3.35
2019-03-06T23:58:03.501Z,3.70
